sensor_id;sensor_type;location;lat;lon;timestamp;P1;durP1;ratioP1;P2;durP2;ratioP2
18188;SDS011;9219;50.396;8.546;2024-02-28T00:25:50;27.03;;;14.27;;
18188;SDS011;9219;50.396;8.546;2024-02-28T00:28:28;30.23;;;13.67;;
18188;SDS011;9219;50.396;8.546;2024-02-28T00:31:46;29.10;;;14.93;;
18188;SDS011;9219;50.396;8.546;2024-02-28T00:34:25;28.63;;;15.17;;
18188;SDS011;9219;50.396;8.546;2024-02-28T00:37:15;33.83;;;14.23;;
18188;SDS011;9219;50.396;8.546;2024-02-28T00:39:55;30.97;;;16.03;;
18188;SDS011;9219;50.396;8.546;2024-02-28T00:42:56;35.63;;;14.27;;
18188;SDS011;9219;50.396;8.546;2024-02-28T00:45:57;32.17;;;15.20;;
18188;SDS011;9219;50.396;8.546;2024-02-28T00:48:47;34.03;;;14.50;;
18188;SDS011;9219;50.396;8.546;2024-02-28T00:51:30;30.70;;;15.07;;
18188;SDS011;9219;50.396;8.546;2024-02-28T00:54:10;35.30;;;18.17;;
18188;SDS011;9219;50.396;8.546;2024-02-28T01:07:43;31.30;;;17.70;;
18188;SDS011;9219;50.396;8.546;2024-02-28T01:10:10;32.53;;;15.97;;
18188;SDS011;9219;50.396;8.546;2024-02-28T01:12:53;33.67;;;15.00;;
18188;SDS011;9219;50.396;8.546;2024-02-28T01:19:24;38.00;;;16.97;;
18188;SDS011;9219;50.396;8.546;2024-02-28T01:22:01;41.63;;;17.47;;
18188;SDS011;9219;50.396;8.546;2024-02-28T01:24:31;38.10;;;18.03;;
18188;SDS011;9219;50.396;8.546;2024-02-28T01:27:05;43.70;;;21.37;;
18188;SDS011;9219;50.396;8.546;2024-02-28T01:30:22;39.03;;;19.27;;
18188;SDS011;9219;50.396;8.546;2024-02-28T01:36:19;52.07;;;20.87;;
18188;SDS011;9219;50.396;8.546;2024-02-28T01:38:48;51.23;;;21.50;;
18188;SDS011;9219;50.396;8.546;2024-02-28T02:31:51;50.13;;;22.60;;
18188;SDS011;9219;50.396;8.546;2024-02-28T02:35:08;55.17;;;21.87;;
18188;SDS011;9219;50.396;8.546;2024-02-28T02:38:26;51.87;;;23.27;;
18188;SDS011;9219;50.396;8.546;2024-02-28T02:41:19;58.27;;;24.17;;
18188;SDS011;9219;50.396;8.546;2024-02-28T02:43:56;52.90;;;23.77;;
18188;SDS011;9219;50.396;8.546;2024-02-28T02:55:18;64.40;;;25.70;;
18188;SDS011;9219;50.396;8.546;2024-02-28T02:58:51;66.17;;;24.30;;
18188;SDS011;9219;50.396;8.546;2024-02-28T03:02:20;67.37;;;24.93;;
18188;SDS011;9219;50.396;8.546;2024-02-28T03:07:51;54.83;;;23.63;;
18188;SDS011;9219;50.396;8.546;2024-02-28T03:21:04;63.20;;;25.83;;
18188;SDS011;9219;50.396;8.546;2024-02-28T03:23:32;54.00;;;23.30;;
18188;SDS011;9219;50.396;8.546;2024-02-28T03:26:02;57.33;;;24.93;;
18188;SDS011;9219;50.396;8.546;2024-02-28T03:28:29;58.33;;;26.77;;
18188;SDS011;9219;50.396;8.546;2024-02-28T03:30:57;64.63;;;26.10;;
18188;SDS011;9219;50.396;8.546;2024-02-28T03:33:24;65.60;;;25.30;;
18188;SDS011;9219;50.396;8.546;2024-02-28T04:06:22;144.80;;;31.30;;
18188;SDS011;9219;50.396;8.546;2024-02-28T04:52:54;322.10;;;33.80;;
18188;SDS011;9219;50.396;8.546;2024-02-28T04:55:34;313.67;;;37.17;;
18188;SDS011;9219;50.396;8.546;2024-02-28T04:58:15;317.30;;;41.27;;
18188;SDS011;9219;50.396;8.546;2024-02-28T05:00:48;479.47;;;47.40;;
18188;SDS011;9219;50.396;8.546;2024-02-28T05:03:31;375.97;;;46.47;;
18188;SDS011;9219;50.396;8.546;2024-02-28T05:06:02;340.43;;;37.87;;
18188;SDS011;9219;50.396;8.546;2024-02-28T05:08:30;537.30;;;55.97;;
18188;SDS011;9219;50.396;8.546;2024-02-28T05:10:57;441.40;;;49.43;;
18188;SDS011;9219;50.396;8.546;2024-02-28T05:13:40;425.67;;;44.30;;
18188;SDS011;9219;50.396;8.546;2024-02-28T05:21:14;457.67;;;48.07;;
18188;SDS011;9219;50.396;8.546;2024-02-28T05:23:42;458.60;;;55.23;;
18188;SDS011;9219;50.396;8.546;2024-02-28T05:36:23;543.80;;;65.63;;
18188;SDS011;9219;50.396;8.546;2024-02-28T05:50:43;509.80;;;58.67;;
18188;SDS011;9219;50.396;8.546;2024-02-28T06:19:43;403.67;;;47.07;;
18188;SDS011;9219;50.396;8.546;2024-02-28T06:23:02;320.47;;;41.93;;
18188;SDS011;9219;50.396;8.546;2024-02-28T07:12:58;448.53;;;49.27;;
18188;SDS011;9219;50.396;8.546;2024-02-28T07:37:13;535.90;;;55.07;;
18188;SDS011;9219;50.396;8.546;2024-02-28T07:39:40;581.80;;;61.87;;
18188;SDS011;9219;50.396;8.546;2024-02-28T07:47:16;528.13;;;52.87;;
18188;SDS011;9219;50.396;8.546;2024-02-28T07:50:11;455.60;;;46.60;;
18188;SDS011;9219;50.396;8.546;2024-02-28T07:52:51;529.70;;;50.27;;
18188;SDS011;9219;50.396;8.546;2024-02-28T07:55:24;517.43;;;57.93;;
18188;SDS011;9219;50.396;8.546;2024-02-28T08:40:19;530.97;;;59.73;;
18188;SDS011;9219;50.396;8.546;2024-02-28T08:43:15;569.40;;;59.13;;
18188;SDS011;9219;50.396;8.546;2024-02-28T08:49:02;712.63;;;71.50;;
18188;SDS011;9219;50.396;8.546;2024-02-28T09:27:38;702.73;;;71.13;;
18188;SDS011;9219;50.396;8.546;2024-02-28T09:30:06;633.50;;;61.97;;
18188;SDS011;9219;50.396;8.546;2024-02-28T09:32:34;828.73;;;75.67;;
18188;SDS011;9219;50.396;8.546;2024-02-28T09:35:02;224.47;;;35.63;;
18188;SDS011;9219;50.396;8.546;2024-02-28T09:37:30;865.77;;;84.13;;
18188;SDS011;9219;50.396;8.546;2024-02-28T09:39:58;572.27;;;59.73;;
18188;SDS011;9219;50.396;8.546;2024-02-28T09:42:27;563.73;;;65.20;;
18188;SDS011;9219;50.396;8.546;2024-02-28T09:49:58;228.27;;;35.20;;
18188;SDS011;9219;50.396;8.546;2024-02-28T09:52:26;521.33;;;59.00;;
18188;SDS011;9219;50.396;8.546;2024-02-28T09:54:53;598.80;;;63.80;;
18188;SDS011;9219;50.396;8.546;2024-02-28T09:57:20;628.53;;;69.20;;
18188;SDS011;9219;50.396;8.546;2024-02-28T09:59:54;345.23;;;44.97;;
18188;SDS011;9219;50.396;8.546;2024-02-28T10:02:24;283.97;;;38.13;;
18188;SDS011;9219;50.396;8.546;2024-02-28T10:04:52;287.80;;;42.73;;
18188;SDS011;9219;50.396;8.546;2024-02-28T10:16:26;701.40;;;81.87;;
18188;SDS011;9219;50.396;8.546;2024-02-28T10:18:58;292.03;;;39.10;;
18188;SDS011;9219;50.396;8.546;2024-02-28T10:21:52;453.20;;;50.70;;
18188;SDS011;9219;50.396;8.546;2024-02-28T10:24:38;330.97;;;47.17;;
18188;SDS011;9219;50.396;8.546;2024-02-28T10:27:17;549.83;;;60.60;;
18188;SDS011;9219;50.396;8.546;2024-02-28T10:30:11;728.63;;;92.90;;
18188;SDS011;9219;50.396;8.546;2024-02-28T10:50:59;171.60;;;36.70;;
18188;SDS011;9219;50.396;8.546;2024-02-28T10:54:08;210.57;;;39.20;;
18188;SDS011;9219;50.396;8.546;2024-02-28T10:59:47;210.83;;;41.73;;
18188;SDS011;9219;50.396;8.546;2024-02-28T11:03:47;167.00;;;38.00;;
18188;SDS011;9219;50.396;8.546;2024-02-28T11:09:40;190.07;;;42.53;;
18188;SDS011;9219;50.396;8.546;2024-02-28T11:15:42;120.37;;;34.47;;
18188;SDS011;9219;50.396;8.546;2024-02-28T11:18:15;109.10;;;32.70;;
18188;SDS011;9219;50.396;8.546;2024-02-28T11:21:17;104.97;;;28.70;;
18188;SDS011;9219;50.396;8.546;2024-02-28T11:24:22;87.03;;;26.37;;
18188;SDS011;9219;50.396;8.546;2024-02-28T11:27:04;84.37;;;24.87;;
18188;SDS011;9219;50.396;8.546;2024-02-28T11:29:39;81.70;;;25.47;;
18188;SDS011;9219;50.396;8.546;2024-02-28T11:32:19;71.23;;;24.70;;
18188;SDS011;9219;50.396;8.546;2024-02-28T11:34:49;54.37;;;20.60;;
18188;SDS011;9219;50.396;8.546;2024-02-28T11:37:17;59.90;;;19.67;;
18188;SDS011;9219;50.396;8.546;2024-02-28T11:42:34;36.77;;;14.37;;
18188;SDS011;9219;50.396;8.546;2024-02-28T11:45:09;44.43;;;15.57;;
18188;SDS011;9219;50.396;8.546;2024-02-28T11:47:37;31.03;;;11.30;;
18188;SDS011;9219;50.396;8.546;2024-02-28T11:50:07;27.80;;;12.10;;
18188;SDS011;9219;50.396;8.546;2024-02-28T11:52:36;23.07;;;10.37;;
18188;SDS011;9219;50.396;8.546;2024-02-28T11:55:04;30.50;;;14.53;;
18188;SDS011;9219;50.396;8.546;2024-02-28T11:57:39;34.50;;;13.10;;
18188;SDS011;9219;50.396;8.546;2024-02-28T12:00:09;25.67;;;11.10;;
18188;SDS011;9219;50.396;8.546;2024-02-28T12:05:23;29.40;;;13.17;;
18188;SDS011;9219;50.396;8.546;2024-02-28T12:07:55;29.17;;;10.77;;
18188;SDS011;9219;50.396;8.546;2024-02-28T12:10:27;35.13;;;12.47;;
18188;SDS011;9219;50.396;8.546;2024-02-28T12:12:58;29.53;;;12.73;;
18188;SDS011;9219;50.396;8.546;2024-02-28T12:15:28;26.53;;;12.73;;
18188;SDS011;9219;50.396;8.546;2024-02-28T12:17:57;23.27;;;10.10;;
18188;SDS011;9219;50.396;8.546;2024-02-28T12:20:43;25.90;;;11.67;;
18188;SDS011;9219;50.396;8.546;2024-02-28T12:23:14;26.67;;;11.93;;
18188;SDS011;9219;50.396;8.546;2024-02-28T12:28:50;20.97;;;9.90;;
18188;SDS011;9219;50.396;8.546;2024-02-28T12:31:20;15.63;;;7.87;;
18188;SDS011;9219;50.396;8.546;2024-02-28T12:33:54;19.40;;;8.70;;
18188;SDS011;9219;50.396;8.546;2024-02-28T12:39:30;16.87;;;7.73;;
18188;SDS011;9219;50.396;8.546;2024-02-28T12:42:03;11.90;;;6.10;;
18188;SDS011;9219;50.396;8.546;2024-02-28T12:44:49;12.80;;;6.80;;
18188;SDS011;9219;50.396;8.546;2024-02-28T12:50:18;11.10;;;5.70;;
18188;SDS011;9219;50.396;8.546;2024-02-28T13:05:43;14.23;;;4.90;;
18188;SDS011;9219;50.396;8.546;2024-02-28T13:08:11;14.53;;;6.37;;
18188;SDS011;9219;50.396;8.546;2024-02-28T13:10:39;8.30;;;4.60;;
18188;SDS011;9219;50.396;8.546;2024-02-28T13:13:43;9.90;;;3.97;;
18188;SDS011;9219;50.396;8.546;2024-02-28T13:16:13;8.27;;;3.60;;
18188;SDS011;9219;50.396;8.546;2024-02-28T13:18:42;9.83;;;5.77;;
18188;SDS011;9219;50.396;8.546;2024-02-28T13:21:11;12.40;;;6.57;;
18188;SDS011;9219;50.396;8.546;2024-02-28T13:32:12;14.63;;;7.30;;
18188;SDS011;9219;50.396;8.546;2024-02-28T13:34:57;11.30;;;5.97;;
18188;SDS011;9219;50.396;8.546;2024-02-28T13:37:32;15.13;;;6.60;;
18188;SDS011;9219;50.396;8.546;2024-02-28T13:40:18;5.97;;;3.40;;
18188;SDS011;9219;50.396;8.546;2024-02-28T13:43:07;3.50;;;1.60;;
18188;SDS011;9219;50.396;8.546;2024-02-28T13:45:41;4.80;;;2.60;;
18188;SDS011;9219;50.396;8.546;2024-02-28T14:01:25;2.47;;;1.73;;
18188;SDS011;9219;50.396;8.546;2024-02-28T14:03:56;3.83;;;2.57;;
18188;SDS011;9219;50.396;8.546;2024-02-28T14:06:27;2.83;;;1.57;;
18188;SDS011;9219;50.396;8.546;2024-02-28T14:08:56;4.83;;;2.83;;
18188;SDS011;9219;50.396;8.546;2024-02-28T14:11:47;3.97;;;2.20;;
18188;SDS011;9219;50.396;8.546;2024-02-28T14:14:18;2.70;;;2.00;;
18188;SDS011;9219;50.396;8.546;2024-02-28T14:16:51;4.63;;;2.17;;
18188;SDS011;9219;50.396;8.546;2024-02-28T14:22:34;2.93;;;1.83;;
18188;SDS011;9219;50.396;8.546;2024-02-28T14:28:16;6.83;;;3.23;;
18188;SDS011;9219;50.396;8.546;2024-02-28T14:30:45;5.03;;;2.57;;
18188;SDS011;9219;50.396;8.546;2024-02-28T14:33:15;3.97;;;2.20;;
18188;SDS011;9219;50.396;8.546;2024-02-28T14:35:43;6.70;;;3.47;;
18188;SDS011;9219;50.396;8.546;2024-02-28T14:38:12;5.83;;;2.90;;
18188;SDS011;9219;50.396;8.546;2024-02-28T14:40:40;7.27;;;3.50;;
18188;SDS011;9219;50.396;8.546;2024-02-28T14:43:07;5.40;;;3.27;;
18188;SDS011;9219;50.396;8.546;2024-02-28T14:48:19;7.10;;;3.27;;
18188;SDS011;9219;50.396;8.546;2024-02-28T14:50:48;4.80;;;2.33;;
18188;SDS011;9219;50.396;8.546;2024-02-28T14:53:16;6.90;;;2.80;;
18188;SDS011;9219;50.396;8.546;2024-02-28T14:55:47;4.17;;;2.10;;
18188;SDS011;9219;50.396;8.546;2024-02-28T14:58:52;4.17;;;2.50;;
18188;SDS011;9219;50.396;8.546;2024-02-28T15:01:21;4.80;;;2.27;;
18188;SDS011;9219;50.396;8.546;2024-02-28T15:03:53;4.70;;;2.30;;
18188;SDS011;9219;50.396;8.546;2024-02-28T15:09:23;4.37;;;1.90;;
18188;SDS011;9219;50.396;8.546;2024-02-28T15:11:51;11.07;;;4.97;;
18188;SDS011;9219;50.396;8.546;2024-02-28T15:14:19;15.83;;;8.40;;
18188;SDS011;9219;50.396;8.546;2024-02-28T15:16:47;17.60;;;9.07;;
18188;SDS011;9219;50.396;8.546;2024-02-28T15:19:17;17.83;;;9.60;;
18188;SDS011;9219;50.396;8.546;2024-02-28T15:21:45;18.43;;;9.10;;
18188;SDS011;9219;50.396;8.546;2024-02-28T15:24:13;21.70;;;10.40;;
18188;SDS011;9219;50.396;8.546;2024-02-28T15:29:19;15.97;;;7.93;;
18188;SDS011;9219;50.396;8.546;2024-02-28T15:31:49;17.03;;;9.03;;
18188;SDS011;9219;50.396;8.546;2024-02-28T15:34:19;17.20;;;8.87;;
18188;SDS011;9219;50.396;8.546;2024-02-28T15:36:46;15.50;;;8.47;;
18188;SDS011;9219;50.396;8.546;2024-02-28T15:39:15;15.10;;;7.60;;
18188;SDS011;9219;50.396;8.546;2024-02-28T15:41:43;15.10;;;8.03;;
18188;SDS011;9219;50.396;8.546;2024-02-28T15:44:10;17.90;;;8.40;;
18188;SDS011;9219;50.396;8.546;2024-02-28T15:49:23;11.80;;;7.07;;
18188;SDS011;9219;50.396;8.546;2024-02-28T15:52:05;16.33;;;7.53;;
18188;SDS011;9219;50.396;8.546;2024-02-28T15:54:34;16.17;;;8.00;;
18188;SDS011;9219;50.396;8.546;2024-02-28T15:57:04;16.50;;;8.83;;
18188;SDS011;9219;50.396;8.546;2024-02-28T15:59:31;13.97;;;7.40;;
18188;SDS011;9219;50.396;8.546;2024-02-28T16:01:59;16.10;;;8.90;;
18188;SDS011;9219;50.396;8.546;2024-02-28T16:04:28;18.00;;;8.70;;
18188;SDS011;9219;50.396;8.546;2024-02-28T16:07:32;21.77;;;9.57;;
18188;SDS011;9219;50.396;8.546;2024-02-28T16:09:59;19.63;;;9.40;;
18188;SDS011;9219;50.396;8.546;2024-02-28T16:12:27;18.33;;;11.27;;
18188;SDS011;9219;50.396;8.546;2024-02-28T16:14:54;19.60;;;10.83;;
18188;SDS011;9219;50.396;8.546;2024-02-28T16:17:22;20.17;;;10.33;;
18188;SDS011;9219;50.396;8.546;2024-02-28T16:19:56;17.67;;;10.20;;
18188;SDS011;9219;50.396;8.546;2024-02-28T16:22:24;18.23;;;9.50;;
18188;SDS011;9219;50.396;8.546;2024-02-28T16:27:33;21.30;;;11.53;;
18188;SDS011;9219;50.396;8.546;2024-02-28T16:30:03;18.17;;;10.57;;
18188;SDS011;9219;50.396;8.546;2024-02-28T16:32:32;20.47;;;10.83;;
18188;SDS011;9219;50.396;8.546;2024-02-28T16:35:00;23.90;;;12.23;;
18188;SDS011;9219;50.396;8.546;2024-02-28T16:37:29;23.17;;;11.20;;
18188;SDS011;9219;50.396;8.546;2024-02-28T16:39:57;26.93;;;11.93;;
18188;SDS011;9219;50.396;8.546;2024-02-28T16:42:24;22.70;;;11.80;;
18188;SDS011;9219;50.396;8.546;2024-02-28T16:50:02;23.90;;;11.83;;
18188;SDS011;9219;50.396;8.546;2024-02-28T16:52:31;22.50;;;11.73;;
18188;SDS011;9219;50.396;8.546;2024-02-28T16:54:58;22.70;;;12.93;;
18188;SDS011;9219;50.396;8.546;2024-02-28T16:57:26;24.83;;;12.13;;
18188;SDS011;9219;50.396;8.546;2024-02-28T16:59:54;22.37;;;11.83;;
18188;SDS011;9219;50.396;8.546;2024-02-28T17:02:21;26.50;;;12.83;;
18188;SDS011;9219;50.396;8.546;2024-02-28T17:04:48;24.43;;;11.30;;
18188;SDS011;9219;50.396;8.546;2024-02-28T17:07:17;25.30;;;12.23;;
18188;SDS011;9219;50.396;8.546;2024-02-28T17:14:10;25.57;;;12.43;;
18188;SDS011;9219;50.396;8.546;2024-02-28T17:16:37;29.03;;;13.10;;
18188;SDS011;9219;50.396;8.546;2024-02-28T17:19:05;21.90;;;11.37;;
18188;SDS011;9219;50.396;8.546;2024-02-28T17:21:32;27.10;;;12.80;;
18188;SDS011;9219;50.396;8.546;2024-02-28T17:24:01;24.57;;;12.63;;
18188;SDS011;9219;50.396;8.546;2024-02-28T17:26:30;21.37;;;11.97;;
18188;SDS011;9219;50.396;8.546;2024-02-28T17:28:58;21.30;;;11.17;;
18188;SDS011;9219;50.396;8.546;2024-02-28T17:36:25;27.77;;;13.63;;
18188;SDS011;9219;50.396;8.546;2024-02-28T17:38:53;26.87;;;13.13;;
18188;SDS011;9219;50.396;8.546;2024-02-28T17:41:21;20.97;;;11.00;;
18188;SDS011;9219;50.396;8.546;2024-02-28T17:43:49;23.00;;;12.90;;
18188;SDS011;9219;50.396;8.546;2024-02-28T17:46:16;26.80;;;12.20;;
18188;SDS011;9219;50.396;8.546;2024-02-28T17:48:44;24.93;;;12.90;;
18188;SDS011;9219;50.396;8.546;2024-02-28T17:51:12;25.57;;;12.80;;
18188;SDS011;9219;50.396;8.546;2024-02-28T18:06:48;22.17;;;11.83;;
18188;SDS011;9219;50.396;8.546;2024-02-28T18:09:16;23.27;;;11.57;;
18188;SDS011;9219;50.396;8.546;2024-02-28T18:11:47;19.77;;;10.10;;
18188;SDS011;9219;50.396;8.546;2024-02-28T18:14:14;19.50;;;10.07;;
18188;SDS011;9219;50.396;8.546;2024-02-28T18:16:42;22.33;;;11.07;;
18188;SDS011;9219;50.396;8.546;2024-02-28T18:19:09;22.60;;;12.07;;
18188;SDS011;9219;50.396;8.546;2024-02-28T18:21:37;22.60;;;11.90;;
18188;SDS011;9219;50.396;8.546;2024-02-28T18:25:32;23.87;;;10.30;;
18188;SDS011;9219;50.396;8.546;2024-02-28T18:28:00;18.77;;;10.37;;
18188;SDS011;9219;50.396;8.546;2024-02-28T18:30:29;19.77;;;9.93;;
18188;SDS011;9219;50.396;8.546;2024-02-28T18:32:56;22.90;;;11.40;;
18188;SDS011;9219;50.396;8.546;2024-02-28T18:35:25;22.37;;;12.20;;
18188;SDS011;9219;50.396;8.546;2024-02-28T18:37:54;23.40;;;10.37;;
18188;SDS011;9219;50.396;8.546;2024-02-28T18:40:22;19.20;;;10.40;;
18188;SDS011;9219;50.396;8.546;2024-02-28T18:47:34;18.77;;;10.13;;
18188;SDS011;9219;50.396;8.546;2024-02-28T18:50:01;25.77;;;11.10;;
18188;SDS011;9219;50.396;8.546;2024-02-28T18:52:30;20.30;;;10.83;;
18188;SDS011;9219;50.396;8.546;2024-02-28T18:54:57;23.53;;;11.37;;
18188;SDS011;9219;50.396;8.546;2024-02-28T18:57:25;19.67;;;9.97;;
18188;SDS011;9219;50.396;8.546;2024-02-28T18:59:53;20.97;;;11.57;;
18188;SDS011;9219;50.396;8.546;2024-02-28T19:02:21;18.83;;;9.83;;
18188;SDS011;9219;50.396;8.546;2024-02-28T19:09:17;21.00;;;11.20;;
18188;SDS011;9219;50.396;8.546;2024-02-28T19:11:44;20.70;;;11.10;;
18188;SDS011;9219;50.396;8.546;2024-02-28T19:14:13;22.20;;;11.40;;
18188;SDS011;9219;50.396;8.546;2024-02-28T19:16:40;27.93;;;14.03;;
18188;SDS011;9219;50.396;8.546;2024-02-28T19:19:07;21.30;;;10.37;;
18188;SDS011;9219;50.396;8.546;2024-02-28T19:21:36;20.70;;;10.20;;
18188;SDS011;9219;50.396;8.546;2024-02-28T19:24:05;23.90;;;12.40;;
18188;SDS011;9219;50.396;8.546;2024-02-28T19:31:30;19.20;;;9.40;;
18188;SDS011;9219;50.396;8.546;2024-02-28T19:33:58;20.47;;;10.10;;
18188;SDS011;9219;50.396;8.546;2024-02-28T19:36:25;23.63;;;12.87;;
18188;SDS011;9219;50.396;8.546;2024-02-28T19:38:53;20.10;;;11.00;;
18188;SDS011;9219;50.396;8.546;2024-02-28T19:41:25;16.37;;;9.10;;
18188;SDS011;9219;50.396;8.546;2024-02-28T19:43:53;20.97;;;11.07;;
18188;SDS011;9219;50.396;8.546;2024-02-28T19:46:22;25.90;;;10.97;;
18188;SDS011;9219;50.396;8.546;2024-02-28T19:53:15;22.30;;;10.70;;
18188;SDS011;9219;50.396;8.546;2024-02-28T19:55:44;17.80;;;9.40;;
18188;SDS011;9219;50.396;8.546;2024-02-28T19:58:12;24.43;;;11.57;;
18188;SDS011;9219;50.396;8.546;2024-02-28T20:00:41;19.17;;;9.67;;
18188;SDS011;9219;50.396;8.546;2024-02-28T20:03:10;21.80;;;10.30;;
18188;SDS011;9219;50.396;8.546;2024-02-28T20:05:39;19.93;;;10.50;;
18188;SDS011;9219;50.396;8.546;2024-02-28T20:08:07;20.93;;;10.60;;
18188;SDS011;9219;50.396;8.546;2024-02-28T20:15:45;18.33;;;9.20;;
18188;SDS011;9219;50.396;8.546;2024-02-28T20:18:14;18.73;;;10.60;;
18188;SDS011;9219;50.396;8.546;2024-02-28T20:20:41;19.93;;;10.00;;
18188;SDS011;9219;50.396;8.546;2024-02-28T20:23:09;18.00;;;10.13;;
18188;SDS011;9219;50.396;8.546;2024-02-28T20:25:37;20.60;;;9.90;;
18188;SDS011;9219;50.396;8.546;2024-02-28T20:28:04;19.87;;;10.87;;
18188;SDS011;9219;50.396;8.546;2024-02-28T20:30:34;18.77;;;10.20;;
18188;SDS011;9219;50.396;8.546;2024-02-28T20:38:14;20.60;;;10.43;;
18188;SDS011;9219;50.396;8.546;2024-02-28T20:40:43;19.87;;;9.70;;
18188;SDS011;9219;50.396;8.546;2024-02-28T20:43:11;20.50;;;9.17;;
18188;SDS011;9219;50.396;8.546;2024-02-28T20:45:42;18.80;;;9.10;;
18188;SDS011;9219;50.396;8.546;2024-02-28T20:48:18;15.47;;;8.13;;
18188;SDS011;9219;50.396;8.546;2024-02-28T20:50:52;15.67;;;7.83;;
18188;SDS011;9219;50.396;8.546;2024-02-28T20:53:22;16.43;;;7.67;;
18188;SDS011;9219;50.396;8.546;2024-02-28T20:55:49;12.67;;;7.37;;
18188;SDS011;9219;50.396;8.546;2024-02-28T20:58:42;17.33;;;8.53;;
18188;SDS011;9219;50.396;8.546;2024-02-28T21:01:11;15.13;;;7.57;;
18188;SDS011;9219;50.396;8.546;2024-02-28T21:03:40;14.90;;;7.00;;
18188;SDS011;9219;50.396;8.546;2024-02-28T21:06:08;13.63;;;6.53;;
18188;SDS011;9219;50.396;8.546;2024-02-28T21:08:35;10.37;;;5.97;;
18188;SDS011;9219;50.396;8.546;2024-02-28T21:11:03;10.23;;;5.73;;
18188;SDS011;9219;50.396;8.546;2024-02-28T21:13:33;13.40;;;6.60;;
18188;SDS011;9219;50.396;8.546;2024-02-28T21:21:01;7.57;;;4.67;;
18188;SDS011;9219;50.396;8.546;2024-02-28T21:23:30;9.40;;;4.73;;
18188;SDS011;9219;50.396;8.546;2024-02-28T21:26:00;13.33;;;5.50;;
18188;SDS011;9219;50.396;8.546;2024-02-28T21:28:28;11.93;;;6.27;;
18188;SDS011;9219;50.396;8.546;2024-02-28T21:30:55;12.77;;;6.60;;
18188;SDS011;9219;50.396;8.546;2024-02-28T21:33:24;15.50;;;7.23;;
18188;SDS011;9219;50.396;8.546;2024-02-28T21:35:52;16.70;;;6.97;;
18188;SDS011;9219;50.396;8.546;2024-02-28T21:38:20;14.23;;;7.17;;
18188;SDS011;9219;50.396;8.546;2024-02-28T21:41:55;12.10;;;5.90;;
18188;SDS011;9219;50.396;8.546;2024-02-28T21:44:23;10.03;;;5.30;;
18188;SDS011;9219;50.396;8.546;2024-02-28T21:46:53;9.30;;;5.33;;
18188;SDS011;9219;50.396;8.546;2024-02-28T21:49:21;9.63;;;5.13;;
18188;SDS011;9219;50.396;8.546;2024-02-28T21:51:49;11.97;;;6.30;;
18188;SDS011;9219;50.396;8.546;2024-02-28T21:54:16;11.63;;;6.67;;
18188;SDS011;9219;50.396;8.546;2024-02-28T21:56:44;14.00;;;6.03;;
18188;SDS011;9219;50.396;8.546;2024-02-28T22:02:43;11.17;;;6.33;;
18188;SDS011;9219;50.396;8.546;2024-02-28T22:05:12;11.43;;;6.57;;
18188;SDS011;9219;50.396;8.546;2024-02-28T22:07:39;13.87;;;7.90;;
18188;SDS011;9219;50.396;8.546;2024-02-28T22:10:07;13.03;;;7.80;;
18188;SDS011;9219;50.396;8.546;2024-02-28T22:12:35;14.90;;;8.53;;
18188;SDS011;9219;50.396;8.546;2024-02-28T22:15:06;13.67;;;8.20;;
18188;SDS011;9219;50.396;8.546;2024-02-28T22:17:34;17.60;;;9.03;;
18188;SDS011;9219;50.396;8.546;2024-02-28T22:20:03;18.00;;;8.90;;
18188;SDS011;9219;50.396;8.546;2024-02-28T22:25:26;14.07;;;8.43;;
18188;SDS011;9219;50.396;8.546;2024-02-28T22:27:53;16.07;;;7.73;;
18188;SDS011;9219;50.396;8.546;2024-02-28T22:30:21;17.33;;;8.13;;
18188;SDS011;9219;50.396;8.546;2024-02-28T22:32:51;18.23;;;10.80;;
18188;SDS011;9219;50.396;8.546;2024-02-28T22:35:19;18.80;;;9.50;;
18188;SDS011;9219;50.396;8.546;2024-02-28T22:37:46;18.60;;;9.17;;
18188;SDS011;9219;50.396;8.546;2024-02-28T22:40:16;13.77;;;7.97;;
18188;SDS011;9219;50.396;8.546;2024-02-28T22:50:44;15.70;;;8.73;;
18188;SDS011;9219;50.396;8.546;2024-02-28T22:53:11;14.43;;;8.53;;
18188;SDS011;9219;50.396;8.546;2024-02-28T22:55:38;15.90;;;8.43;;
18188;SDS011;9219;50.396;8.546;2024-02-28T22:58:06;15.63;;;8.83;;
18188;SDS011;9219;50.396;8.546;2024-02-28T23:00:34;16.83;;;9.43;;
18188;SDS011;9219;50.396;8.546;2024-02-28T23:08:03;16.80;;;9.60;;
18188;SDS011;9219;50.396;8.546;2024-02-28T23:10:31;19.30;;;8.97;;
18188;SDS011;9219;50.396;8.546;2024-02-28T23:12:59;20.33;;;9.87;;
18188;SDS011;9219;50.396;8.546;2024-02-28T23:15:35;16.10;;;9.27;;
18188;SDS011;9219;50.396;8.546;2024-02-28T23:18:02;18.17;;;10.33;;
18188;SDS011;9219;50.396;8.546;2024-02-28T23:20:30;17.67;;;9.93;;
18188;SDS011;9219;50.396;8.546;2024-02-28T23:23:07;17.27;;;9.60;;
18188;SDS011;9219;50.396;8.546;2024-02-28T23:30:43;20.07;;;10.33;;
18188;SDS011;9219;50.396;8.546;2024-02-28T23:33:11;17.97;;;9.40;;
18188;SDS011;9219;50.396;8.546;2024-02-28T23:35:38;26.77;;;10.33;;
18188;SDS011;9219;50.396;8.546;2024-02-28T23:38:08;18.40;;;9.63;;
18188;SDS011;9219;50.396;8.546;2024-02-28T23:40:38;18.33;;;9.50;;
18188;SDS011;9219;50.396;8.546;2024-02-28T23:43:06;15.20;;;8.43;;
18188;SDS011;9219;50.396;8.546;2024-02-28T23:45:36;16.83;;;9.60;;
18188;SDS011;9219;50.396;8.546;2024-02-28T23:52:57;19.57;;;9.93;;
18188;SDS011;9219;50.396;8.546;2024-02-28T23:55:25;15.63;;;8.53;;
18188;SDS011;9219;50.396;8.546;2024-02-28T23:57:52;19.07;;;9.83;;
